CheckWX is a tool to help pilots better visualize weather data.  It is not intended as a substitute for an official pre-flight weather briefing.

00:48:34 UTC

KWWR TAF
West Woodward Airport
Woodward, Oklahoma, USA
KWWR 242335Z 2500/2524 36007KT P6SM SCT040 FM250200 30010KT P6SM OVC040 TEMPO 2503/2507 6SM -RASN OVC025 FM250800 31009KT P6SM SCT050 FM251400 31019G26KT P6SM BKN050

Feb-25@
00:00 UTC

Feb-25 @ 00:00 UTC

Feb-25@
02:00 UTC

Feb-25 @ 02:00 UTC

KWWR 242335Z 2500/2524 36007KT P6SM SCT040
Wind
  • 360° at 7 KTS
Cloud Levels
  • Scattered at 4,000' AGL

Feb-25@
02:00 UTC

Feb-25 @ 02:00 UTC

Feb-25@
08:00 UTC

Feb-25 @ 08:00 UTC

FM250200 30010KT P6SM OVC040

From

From Standard forecast or significant change

Wind
  • 300° at 10 KTS
Cloud Levels
  • Overcast at 4,000' AGL

Feb-25@
03:00 UTC

Feb-25 @ 03:00 UTC

Feb-25@
07:00 UTC

Feb-25 @ 07:00 UTC

TEMPO 2503/2507 6SM -RASN OVC025

Temporary

Temporary Changes expected for less than half the time period

Conditions
Light Rain, Light Snow
Cloud Levels
  • Overcast at 2,500' AGL

Feb-25@
08:00 UTC

Feb-25 @ 08:00 UTC

Feb-25@
14:00 UTC

Feb-25 @ 14:00 UTC

FM250800 31009KT P6SM SCT050

From

From Standard forecast or significant change

Wind
  • 310° at 9 KTS
Cloud Levels
  • Scattered at 5,000' AGL

Feb-25@
14:00 UTC

Feb-25 @ 14:00 UTC

Feb-26@
00:00 UTC

Feb-26 @ 00:00 UTC

FM251400 31019G26KT P6SM BKN050

From

From Standard forecast or significant change

Wind
  • 310° at 19 KTS
  • {Gusting to 26 KTS
Cloud Levels
  • Broken at 5,000' AGL